Time;durP1;ratioP1;P1;durP2;ratioP2;P2;SDS_P1;SDS_P2;PMS_P1;PMS_P2;Temp;Humidity;BMP_temperature;BMP_pressure;BME280_temperature;BME280_humidity;BME280_pressure;Samples;Min_cycle;Max_cycle;Signal;HPM_P1;HPM_P2
2021/03/22 00:00:57;;;;;;;35.88;9.68;;;4.20;99.90;;;;;;4904747;29;20032;-90
2021/03/22 00:03:23;;;;;;;32.13;9.07;;;4.20;99.90;;;;;;4905794;29;20024;-90
2021/03/22 00:05:50;;;;;;;39.03;9.80;;;4.10;99.90;;;;;;4904940;29;20083;-90
2021/03/22 00:08:17;;;;;;;31.92;8.32;;;4.10;99.90;;;;;;4921682;29;20035;-90
2021/03/22 00:10:45;;;;;;;24.17;8.00;;;4.20;99.90;;;;;;4904830;29;20028;-90
2021/03/22 00:13:15;;;;;;;39.40;8.82;;;4.30;99.90;;;;;;4904899;29;20032;-90
2021/03/22 00:15:41;;;;;;;37.05;9.70;;;4.30;99.90;;;;;;4904779;29;20096;-90
2021/03/22 00:18:11;;;;;;;29.52;8.07;;;4.30;99.90;;;;;;4904717;29;20043;-90
2021/03/22 00:20:38;;;;;;;41.20;9.40;;;4.30;99.90;;;;;;4921765;29;20055;-90
2021/03/22 00:23:04;;;;;;;47.85;9.45;;;4.30;99.90;;;;;;4904681;29;20032;-90
2021/03/22 00:25:30;;;;;;;34.88;7.90;;;4.30;99.90;;;;;;4904579;29;20028;-90
2021/03/22 00:27:56;;;;;;;40.85;9.07;;;4.20;99.90;;;;;;4904274;29;20060;-90
2021/03/22 00:30:29;;;;;;;37.97;8.15;;;4.20;99.90;;;;;;4904129;29;20040;-90
2021/03/22 00:32:56;;;;;;;36.78;9.63;;;4.20;99.90;;;;;;4904418;29;20052;-90
2021/03/22 00:35:22;;;;;;;28.45;7.72;;;4.30;99.90;;;;;;4920949;29;20039;-90
2021/03/22 00:37:48;;;;;;;26.55;7.38;;;4.20;99.90;;;;;;4921172;29;20028;-90
2021/03/22 00:40:16;;;;;;;35.03;7.25;;;4.20;99.90;;;;;;4903970;29;20039;-90
2021/03/22 00:42:43;;;;;;;24.00;6.85;;;4.20;99.90;;;;;;4920950;29;20036;-90
2021/03/22 00:45:10;;;;;;;30.85;7.65;;;4.20;99.90;;;;;;4920553;29;20032;-91
2021/03/22 00:47:36;;;;;;;32.10;8.05;;;4.30;99.90;;;;;;4904129;29;20471;-90
2021/03/22 00:50:04;;;;;;;37.88;8.20;;;4.30;99.90;;;;;;4903970;29;20056;-90
2021/03/22 00:52:30;;;;;;;36.17;8.50;;;4.30;99.90;;;;;;4904442;29;20051;-90
2021/03/22 00:54:55;;;;;;;34.33;6.85;;;4.20;99.90;;;;;;4904141;29;20476;-91
2021/03/22 00:57:21;;;;;;;44.75;8.70;;;4.10;99.90;;;;;;4903911;29;20031;-90
2021/03/22 00:59:47;;;;;;;37.53;8.73;;;4.10;99.90;;;;;;4921190;29;20031;-90
2021/03/22 01:02:12;;;;;;;38.55;8.13;;;4.10;99.90;;;;;;4903749;29;20496;-90
2021/03/22 01:04:38;;;;;;;30.73;7.60;;;4.10;99.90;;;;;;4903758;29;20392;-90
2021/03/22 01:07:04;;;;;;;36.83;7.63;;;4.10;99.90;;;;;;4920511;29;20039;-90
2021/03/22 01:09:30;;;;;;;36.40;7.40;;;4.20;99.90;;;;;;4903830;29;20025;-90
2021/03/22 01:11:56;;;;;;;36.90;7.00;;;4.20;99.90;;;;;;4903691;29;20027;-90
2021/03/22 01:14:22;;;;;;;34.13;7.43;;;4.20;99.90;;;;;;4903485;29;20499;-90
2021/03/22 01:16:48;;;;;;;29.40;7.35;;;4.10;99.90;;;;;;4903590;29;20028;-90
2021/03/22 01:19:17;;;;;;;35.33;7.20;;;4.20;99.90;;;;;;4903630;29;20135;-90
2021/03/22 01:21:53;;;;;;;39.92;8.30;;;4.20;99.90;;;;;;4903256;29;20563;-90
2021/03/22 01:24:20;;;;;;;34.15;7.68;;;4.30;99.90;;;;;;4903422;29;20031;-90
2021/03/22 01:26:48;;;;;;;23.98;5.95;;;4.20;99.90;;;;;;4903747;29;20492;-90
2021/03/22 01:29:19;;;;;;;33.05;7.03;;;4.30;99.90;;;;;;4919899;29;20051;-90
2021/03/22 01:31:46;;;;;;;36.22;8.07;;;4.30;99.90;;;;;;4903182;29;20047;-91
2021/03/22 01:34:13;;;;;;;45.38;8.35;;;4.30;99.90;;;;;;4903469;29;20044;-89
2021/03/22 01:36:39;;;;;;;31.70;7.53;;;4.20;99.90;;;;;;4920784;29;20035;-90
2021/03/22 01:39:17;;;;;;;40.78;7.60;;;4.30;99.90;;;;;;4903273;29;20118;-91
2021/03/22 01:41:43;;;;;;;30.25;6.50;;;4.30;99.90;;;;;;4903241;29;20064;-90
2021/03/22 01:44:33;;;;;;;38.50;7.28;;;4.20;99.90;;;;;;4904028;29;20400;-90
2021/03/22 01:47:21;;;;;;;29.65;7.25;;;4.10;99.90;;;;;;4903232;29;20059;-91
2021/03/22 01:50:15;;;;;;;24.27;6.43;;;4.20;99.90;;;;;;4902526;29;20053;-90
2021/03/22 01:52:43;;;;;;;26.95;6.40;;;4.20;99.90;;;;;;4903498;29;20052;-90
2021/03/22 01:55:12;;;;;;;27.42;6.95;;;4.10;99.90;;;;;;4902848;29;20028;-91
2021/03/22 01:57:43;;;;;;;32.13;7.45;;;4.20;99.90;;;;;;4919834;29;20028;-90
2021/03/22 02:00:09;;;;;;;35.17;7.47;;;4.30;99.90;;;;;;4902958;29;20028;-91
2021/03/22 02:02:36;;;;;;;37.85;7.85;;;4.20;99.90;;;;;;4902563;29;20031;-90
2021/03/22 02:05:04;;;;;;;35.58;7.18;;;4.20;99.90;;;;;;4902833;29;20028;-90
2021/03/22 02:07:31;;;;;;;41.35;6.95;;;4.20;99.90;;;;;;4902902;29;20061;-91
2021/03/22 02:09:57;;;;;;;45.80;7.72;;;4.10;99.90;;;;;;4902956;29;20031;-90
2021/03/22 02:12:24;;;;;;;38.15;7.65;;;4.10;99.90;;;;;;4919525;29;20028;-91
2021/03/22 02:14:51;;;;;;;31.95;6.95;;;4.00;99.90;;;;;;4902620;29;20087;-90
2021/03/22 02:17:46;;;;;;;40.88;7.22;;;4.10;99.90;;;;;;4902625;29;20051;-90
2021/03/22 02:20:57;;;;;;;32.60;7.13;;;4.20;99.90;;;;;;4902488;29;20036;-90
2021/03/22 02:23:50;;;;;;;36.58;7.07;;;4.30;99.90;;;;;;4902433;29;20080;-90
2021/03/22 02:26:46;;;;;;;31.90;6.25;;;4.20;99.90;;;;;;4902653;29;20551;-91
2021/03/22 02:29:36;;;;;;;38.35;7.18;;;4.20;99.90;;;;;;4902137;29;20087;-90
2021/03/22 02:32:25;;;;;;;29.83;6.38;;;4.10;99.90;;;;;;4918851;29;20456;-90
2021/03/22 02:35:03;;;;;;;30.17;7.00;;;4.20;99.90;;;;;;4902263;29;20028;-90
2021/03/22 02:38:07;;;;;;;33.78;6.25;;;4.20;99.90;;;;;;4902218;29;20036;-91
2021/03/22 02:40:51;;;;;;;33.53;6.43;;;4.20;99.90;;;;;;4902253;29;20036;-90
2021/03/22 02:43:17;;;;;;;43.15;7.05;;;4.20;99.90;;;;;;4918941;29;20103;-90
2021/03/22 02:45:44;;;;;;;28.73;6.18;;;4.10;99.90;;;;;;4902258;29;20091;-90
2021/03/22 02:48:21;;;;;;;31.48;6.85;;;4.10;99.90;;;;;;4901947;29;20028;-90
2021/03/22 02:50:52;;;;;;;28.30;6.15;;;4.10;99.90;;;;;;4918692;29;20020;-91
2021/03/22 02:53:45;;;;;;;28.35;6.15;;;4.10;99.90;;;;;;4901961;29;20032;-90
2021/03/22 02:56:30;;;;;;;30.52;6.28;;;4.00;99.90;;;;;;4902258;29;20024;-91
2021/03/22 02:59:04;;;;;;;29.42;6.20;;;4.20;99.90;;;;;;4902048;29;20432;-90
2021/03/22 03:01:42;;;;;;;28.83;6.00;;;4.20;99.90;;;;;;4901891;29;20052;-90
2021/03/22 03:04:12;;;;;;;26.67;5.22;;;4.20;99.90;;;;;;4901859;29;20036;-90
2021/03/22 03:06:49;;;;;;;25.95;5.45;;;4.20;99.90;;;;;;4918601;29;20032;-91
2021/03/22 03:09:16;;;;;;;33.95;6.95;;;4.30;99.90;;;;;;4918873;29;20099;-90
2021/03/22 03:11:43;;;;;;;28.90;5.93;;;4.30;99.90;;;;;;4901751;29;20056;-90
2021/03/22 03:14:09;;;;;;;38.70;6.55;;;4.30;99.90;;;;;;4901837;29;20035;-90
2021/03/22 03:16:35;;;;;;;41.58;6.70;;;4.20;99.90;;;;;;4918452;29;20122;-90
2021/03/22 03:19:01;;;;;;;26.15;5.50;;;4.20;99.90;;;;;;4901892;29;20035;-90
2021/03/22 03:21:27;;;;;;;23.80;5.40;;;4.10;99.90;;;;;;4901328;29;20059;-90
2021/03/22 03:23:53;;;;;;;33.47;6.68;;;4.10;99.90;;;;;;4902347;29;20063;-90
2021/03/22 03:26:19;;;;;;;34.58;6.97;;;4.10;99.90;;;;;;4901248;29;20072;-91
2021/03/22 03:28:45;;;;;;;30.10;6.28;;;4.10;99.90;;;;;;4901556;29;20083;-90
2021/03/22 03:31:11;;;;;;;27.60;6.60;;;4.10;99.90;;;;;;4918428;29;20031;-91
2021/03/22 03:33:37;;;;;;;21.77;5.18;;;4.10;99.90;;;;;;4902400;29;20051;-90
2021/03/22 03:36:03;;;;;;;35.67;6.18;;;4.10;99.90;;;;;;4905397;29;20086;-90
2021/03/22 03:38:29;;;;;;;32.08;6.88;;;4.30;99.90;;;;;;4905404;29;20119;-89
2021/03/22 03:40:54;;;;;;;34.55;5.93;;;4.00;99.90;;;;;;4922314;29;20024;-90
2021/03/22 03:43:21;;;;;;;24.83;5.63;;;4.00;99.90;;;;;;4905285;29;20511;-90
2021/03/22 03:45:50;;;;;;;31.48;6.53;;;4.10;99.90;;;;;;4922036;29;20370;-91
2021/03/22 03:48:22;;;;;;;36.00;7.15;;;4.10;99.90;;;;;;4905545;29;20510;-90
2021/03/22 03:50:49;;;;;;;42.60;6.57;;;4.20;99.90;;;;;;4905576;29;20034;-90
2021/03/22 03:53:15;;;;;;;34.58;6.55;;;4.20;99.90;;;;;;4905603;29;20125;-90
2021/03/22 03:55:42;;;;;;;32.10;7.65;;;4.00;99.90;;;;;;4905554;29;20373;-90
2021/03/22 03:58:08;;;;;;;46.72;7.63;;;4.00;99.90;;;;;;4922198;29;20083;-90
2021/03/22 04:00:42;;;;;;;41.47;7.93;;;4.10;99.90;;;;;;4904703;29;20024;-90
2021/03/22 04:03:25;;;;;;;32.90;7.18;;;4.20;99.90;;;;;;4905009;29;20028;-90
2021/03/22 04:05:57;;;;;;;33.03;6.22;;;4.10;99.90;;;;;;4905446;29;20052;-91
2021/03/22 04:08:24;;;;;;;27.45;6.55;;;4.10;99.90;;;;;;4905082;29;20104;-91
2021/03/22 04:10:51;;;;;;;36.63;6.75;;;4.30;99.90;;;;;;4905053;29;20488;-91
2021/03/22 04:13:18;;;;;;;31.88;6.75;;;4.20;99.90;;;;;;4905207;29;20123;-90
2021/03/22 04:15:44;;;;;;;34.83;5.68;;;4.30;99.90;;;;;;4905298;29;20084;-90
2021/03/22 04:18:10;;;;;;;25.92;5.97;;;4.30;99.90;;;;;;4905364;29;20125;-91
2021/03/22 04:20:35;;;;;;;29.90;6.38;;;4.30;99.90;;;;;;4905140;29;20035;-90
2021/03/22 04:23:02;;;;;;;34.10;6.25;;;4.20;99.90;;;;;;4905026;29;20036;-90
2021/03/22 04:25:28;;;;;;;37.28;7.05;;;4.00;99.90;;;;;;4904743;29;20024;-90
2021/03/22 04:27:53;;;;;;;28.85;6.07;;;3.90;99.90;;;;;;4904735;29;20035;-89
2021/03/22 04:30:20;;;;;;;36.38;7.00;;;4.00;99.90;;;;;;4904883;29;20433;-91
2021/03/22 04:32:45;;;;;;;33.03;6.63;;;4.10;99.90;;;;;;4904860;29;20031;-91
2021/03/22 04:35:12;;;;;;;36.28;7.85;;;4.00;99.90;;;;;;4921776;29;20028;-91
2021/03/22 04:37:37;;;;;;;27.63;5.28;;;4.00;99.90;;;;;;4904308;29;20047;-91
2021/03/22 04:40:06;;;;;;;27.83;6.35;;;4.00;99.90;;;;;;4904944;29;20028;-91
2021/03/22 04:42:32;;;;;;;31.60;6.88;;;4.00;99.90;;;;;;4904694;29;20043;-91
2021/03/22 04:44:58;;;;;;;40.85;7.25;;;4.00;99.90;;;;;;4903971;29;20032;-91
2021/03/22 04:47:23;;;;;;;36.88;7.18;;;4.00;99.90;;;;;;4921461;29;20362;-90
2021/03/22 04:49:49;;;;;;;33.88;6.45;;;3.90;99.90;;;;;;4904804;29;20031;-90
2021/03/22 04:52:15;;;;;;;34.83;6.90;;;4.00;99.90;;;;;;4904279;29;20114;-90
2021/03/22 04:54:41;;;;;;;26.00;6.40;;;3.90;99.90;;;;;;4904478;29;20036;-90
2021/03/22 04:57:31;;;;;;;31.25;6.13;;;4.00;99.90;;;;;;4904307;29;20032;-91
2021/03/22 04:59:58;;;;;;;32.38;5.88;;;4.10;99.90;;;;;;4920318;29;20579;-91
2021/03/22 05:02:24;;;;;;;28.48;6.30;;;4.10;99.90;;;;;;4904087;29;20028;-90
2021/03/22 05:04:50;;;;;;;35.58;6.57;;;3.90;99.90;;;;;;4920957;29;20036;-90
2021/03/22 05:07:17;;;;;;;28.35;5.63;;;3.80;99.90;;;;;;4903911;29;20385;-90
2021/03/22 05:09:44;;;;;;;33.08;5.63;;;3.80;99.90;;;;;;4904040;29;20024;-90
2021/03/22 05:12:10;;;;;;;29.25;5.70;;;3.90;99.90;;;;;;4904271;29;20028;-91
2021/03/22 05:14:36;;;;;;;32.33;5.70;;;3.80;99.90;;;;;;4921067;29;20028;-91
2021/03/22 05:17:03;;;;;;;31.92;6.50;;;3.70;99.90;;;;;;4903818;29;20032;-91
2021/03/22 05:19:29;;;;;;;37.03;6.97;;;3.90;99.90;;;;;;4903691;29;20036;-90
2021/03/22 05:21:57;;;;;;;35.47;6.95;;;3.80;99.90;;;;;;4904037;29;20035;-91
2021/03/22 05:24:24;;;;;;;25.88;5.90;;;3.70;99.90;;;;;;4904246;29;20024;-91
2021/03/22 05:26:50;;;;;;;37.63;6.13;;;3.70;99.90;;;;;;4904121;29;20485;-91
2021/03/22 05:29:16;;;;;;;27.65;6.20;;;3.80;99.90;;;;;;4903456;29;20134;-91
2021/03/22 05:31:42;;;;;;;29.50;5.82;;;3.80;99.90;;;;;;4903450;29;20047;-91
2021/03/22 05:34:07;;;;;;;28.02;5.65;;;3.80;99.90;;;;;;4903519;29;20035;-90
2021/03/22 05:36:33;;;;;;;26.55;6.07;;;4.00;99.90;;;;;;4903933;29;20039;-91
2021/03/22 05:38:59;;;;;;;23.50;5.75;;;4.00;99.90;;;;;;4903889;29;20032;-91
2021/03/22 05:41:27;;;;;;;23.40;5.55;;;3.90;99.90;;;;;;4903923;29;20040;-91
2021/03/22 05:44:12;;;;;;;30.60;6.10;;;4.00;99.90;;;;;;4920561;29;20040;-91
2021/03/22 05:46:48;;;;;;;27.42;5.75;;;3.80;99.90;;;;;;4903514;29;20028;-90
2021/03/22 05:49:23;;;;;;;30.70;6.53;;;3.90;99.90;;;;;;4904422;29;20341;-91
2021/03/22 05:52:21;;;;;;;35.15;6.35;;;3.90;99.90;;;;;;4903376;29;20024;-90
2021/03/22 05:55:24;;;;;;;31.88;6.57;;;4.00;99.90;;;;;;4920333;29;20138;-90
2021/03/22 05:58:08;;;;;;;34.55;6.45;;;4.00;99.90;;;;;;4905322;29;20118;-90
2021/03/22 06:00:50;;;;;;;35.75;6.43;;;3.90;99.90;;;;;;4903386;29;20118;-91
2021/03/22 06:03:37;;;;;;;22.75;4.95;;;3.90;99.90;;;;;;4919984;29;20028;-90
2021/03/22 06:06:38;;;;;;;32.40;5.80;;;3.90;99.90;;;;;;4903515;29;20047;-91
2021/03/22 06:09:25;;;;;;;32.95;6.80;;;4.00;99.90;;;;;;4920011;29;20520;-90
2021/03/22 06:12:08;;;;;;;22.70;6.05;;;4.00;99.90;;;;;;4903221;29;20384;-91
2021/03/22 06:18:08;;;;;;;30.20;6.53;;;4.00;99.90;;;;;;4919893;29;20035;-90
2021/03/22 06:20:41;;;;;;;35.42;6.07;;;4.00;99.90;;;;;;4904246;29;20460;-90
2021/03/22 06:23:37;;;;;;;31.65;6.35;;;3.90;99.90;;;;;;4903309;29;20484;-92
2021/03/22 06:26:11;;;;;;;43.67;6.97;;;4.10;99.90;;;;;;4903816;29;20035;-90
2021/03/22 06:28:38;;;;;;;;;;;4.10;99.90;;;;;;4903563;29;20056;-91
2021/03/22 06:31:14;;;;;;;18.92;4.47;;;4.10;99.90;;;;;;4902952;29;19907;-90
2021/03/22 06:34:07;;;;;;;28.08;5.30;;;4.20;99.90;;;;;;4903104;29;20028;-90
2021/03/22 06:36:39;;;;;;;31.52;5.53;;;4.30;99.90;;;;;;4893420;29;20036;-90
2021/03/22 06:39:12;;;;;;;34.38;5.60;;;4.30;99.90;;;;;;4902876;29;20032;-90
2021/03/22 06:41:47;;;;;;;40.00;6.15;;;4.10;99.90;;;;;;4903208;29;20497;-90
2021/03/22 06:44:18;;;;;;;23.27;5.22;;;4.00;99.90;;;;;;4902673;29;20115;-91
2021/03/22 06:47:04;;;;;;;32.90;5.70;;;4.10;99.90;;;;;;4902890;29;20464;-91
2021/03/22 06:49:39;;;;;;;27.77;5.28;;;4.30;99.90;;;;;;4903202;29;20024;-90
2021/03/22 06:52:19;;;;;;;37.78;6.20;;;4.30;99.90;;;;;;4902793;29;20502;-90
2021/03/22 06:55:16;;;;;;;28.08;4.72;;;4.40;99.90;;;;;;4902812;29;20061;-90
2021/03/22 06:57:50;;;;;;;30.88;4.90;;;4.30;99.90;;;;;;4887938;29;20039;-91
2021/03/22 07:00:23;;;;;;;30.77;6.15;;;4.30;99.90;;;;;;4902162;29;20064;-90
2021/03/22 07:02:53;;;;;;;38.45;6.35;;;4.40;99.90;;;;;;4919536;29;20099;-90
2021/03/22 07:05:35;;;;;;;31.02;5.78;;;4.20;99.90;;;;;;4903077;29;20513;-90
2021/03/22 07:08:10;;;;;;;16.20;4.00;;;4.20;99.90;;;;;;4901891;29;20028;-90
2021/03/22 07:10:36;;;;;;;23.05;5.63;;;4.30;99.90;;;;;;4902262;29;20039;-91
2021/03/22 07:13:25;;;;;;;29.50;5.18;;;4.30;99.90;;;;;;4902394;29;20136;-90
2021/03/22 07:16:10;;;;;;;27.58;5.32;;;4.20;99.90;;;;;;4902731;29;20028;-90
2021/03/22 07:18:37;;;;;;;32.05;5.68;;;4.20;99.90;;;;;;4902392;29;20464;-91
2021/03/22 07:21:16;;;;;;;27.77;5.07;;;4.20;99.90;;;;;;4902097;29;20032;-90
2021/03/22 07:23:42;;;;;;;29.58;6.15;;;4.30;99.90;;;;;;4902157;29;20069;-91
2021/03/22 07:26:46;;;;;;;38.15;5.22;;;4.30;99.90;;;;;;4902145;29;20039;-90
2021/03/22 07:29:36;;;;;;;25.80;4.93;;;4.20;99.90;;;;;;4902882;29;20056;-92
2021/03/22 07:32:37;;;;;;;32.13;5.53;;;4.40;99.90;;;;;;4901775;29;20054;-90
2021/03/22 07:35:27;;;;;;;30.40;5.43;;;4.40;99.90;;;;;;4809345;29;20034;-91
2021/03/22 07:38:00;;;;;;;29.38;6.13;;;4.30;99.90;;;;;;4914713;29;20068;-91
2021/03/22 07:41:08;;;;;;;26.23;5.35;;;4.30;99.90;;;;;;4902197;29;20024;-91
2021/03/22 07:43:52;;;;;;;36.22;5.57;;;4.30;99.90;;;;;;4902970;29;20024;-92
2021/03/22 07:46:49;;;;;;;14.55;3.33;;;4.30;99.90;;;;;;4902839;29;20484;-92
2021/03/22 07:49:29;;;;;;;30.02;5.10;;;4.40;99.90;;;;;;4901817;29;20056;-89
2021/03/22 07:52:07;;;;;;;34.33;5.85;;;4.40;99.90;;;;;;4903302;29;20076;-93
2021/03/22 07:54:51;;;;;;;24.88;4.90;;;4.50;99.90;;;;;;4902651;29;20028;-91
2021/03/22 07:57:46;;;;;;;27.48;4.72;;;4.50;99.90;;;;;;4903319;29;20028;-92
2021/03/22 08:00:19;;;;;;;33.53;5.68;;;4.60;99.90;;;;;;4866463;29;20123;-91
2021/03/22 08:02:54;;;;;;;24.60;4.82;;;4.40;99.90;;;;;;4902593;29;20090;-92
2021/03/22 08:05:36;;;;;;;27.73;5.03;;;4.50;99.90;;;;;;4902830;29;20020;-92
2021/03/22 08:08:34;;;;;;;26.27;5.13;;;4.50;99.90;;;;;;4902315;29;20031;-92
2021/03/22 08:11:15;;;;;;;22.08;4.63;;;4.50;99.90;;;;;;4882802;29;20038;-91
2021/03/22 08:14:00;;;;;;;18.45;3.92;;;4.40;99.90;;;;;;4902268;29;20028;-91
2021/03/22 08:16:53;;;;;;;23.83;4.03;;;4.50;99.90;;;;;;4903121;29;20465;-90
2021/03/22 08:20:00;;;;;;;24.23;4.72;;;4.60;99.90;;;;;;4903127;29;20035;-92
2021/03/22 08:22:33;;;;;;;22.30;3.90;;;4.50;99.90;;;;;;4905250;29;20024;-91
2021/03/22 08:25:23;;;;;;;24.98;4.03;;;4.60;99.90;;;;;;4905712;29;20035;-91
2021/03/22 08:28:33;;;;;;;19.52;3.85;;;4.50;99.90;;;;;;4905569;29;20473;-92
2021/03/22 08:31:20;;;;;;;21.98;4.50;;;4.60;99.90;;;;;;4905217;29;20047;-91
2021/03/22 08:33:56;;;;;;;21.15;4.25;;;4.80;99.90;;;;;;4905465;29;20032;-92
2021/03/22 08:36:34;;;;;;;14.80;3.72;;;4.80;99.90;;;;;;4905737;29;20035;-91
2021/03/22 08:39:39;;;;;;;16.73;3.60;;;5.00;99.90;;;;;;4905781;29;20358;-91
2021/03/22 08:42:09;;;;;;;;;;;5.10;99.90;;;;;;4906487;29;20386;-91
2021/03/22 08:45:06;;;;;;;23.42;4.13;;;5.20;99.90;;;;;;4904768;29;20005;-93
2021/03/22 08:47:38;;;;;;;17.88;4.20;;;5.10;99.90;;;;;;4904985;29;20035;-91
2021/03/22 08:50:28;;;;;;;16.35;3.92;;;5.20;99.90;;;;;;4905059;29;20021;-90
2021/03/22 08:53:02;;;;;;;14.80;3.63;;;5.20;99.90;;;;;;4905274;29;20060;-89
2021/03/22 08:55:47;;;;;;;16.52;3.70;;;5.10;99.90;;;;;;4905232;29;20084;-90
2021/03/22 08:58:45;;;;;;;27.48;4.47;;;5.10;99.90;;;;;;4904915;29;20029;-90
2021/03/22 09:01:44;;;;;;;15.98;3.83;;;5.20;99.90;;;;;;4905403;29;20131;-88
2021/03/22 09:04:36;;;;;;;18.30;3.40;;;5.20;99.90;;;;;;4902771;29;20055;-87
2021/03/22 09:07:11;;;;;;;21.48;3.20;;;5.20;99.90;;;;;;4902931;29;20024;-86
2021/03/22 09:09:42;;;;;;;26.75;3.35;;;5.10;99.90;;;;;;4902837;29;20029;-87
2021/03/22 09:12:45;;;;;;;21.00;3.83;;;5.00;99.90;;;;;;4903534;29;20075;-86
2021/03/22 09:15:25;;;;;;;18.45;4.03;;;5.10;99.90;;;;;;4902866;29;20036;-87
2021/03/22 09:18:00;;;;;;;10.60;2.50;;;5.20;99.90;;;;;;4903687;29;20024;-87
2021/03/22 09:20:32;;;;;;;22.83;3.28;;;5.30;99.90;;;;;;4902754;29;20123;-87
2021/03/22 09:23:30;;;;;;;19.88;3.17;;;5.30;99.90;;;;;;4903699;29;20042;-90
2021/03/22 09:26:02;;;;;;;9.75;2.67;;;5.10;99.90;;;;;;4902481;29;20056;-89
2021/03/22 09:28:28;;;;;;;15.95;3.28;;;5.10;99.90;;;;;;4902847;29;20062;-87
2021/03/22 09:31:12;;;;;;;19.95;3.67;;;5.20;99.90;;;;;;4901968;29;20115;-86
2021/03/22 09:33:57;;;;;;;15.82;3.22;;;5.50;99.90;;;;;;4902901;29;20060;-87
2021/03/22 09:36:28;;;;;;;10.75;2.65;;;5.50;99.90;;;;;;4903870;29;20039;-87
2021/03/22 09:38:54;;;;;;;13.38;3.13;;;5.70;99.90;;;;;;4902934;29;20476;-89
2021/03/22 09:48:29;;;;;;;16.15;3.33;;;5.50;99.90;;;;;;4861297;29;20041;-87
2021/03/22 09:51:04;;;;;;;20.83;3.15;;;5.60;99.90;;;;;;4802881;29;20029;-88
2021/03/22 09:53:57;;;;;;;15.85;3.03;;;5.50;99.90;;;;;;4840578;29;20038;-87
2021/03/22 09:57:02;;;;;;;19.00;2.88;;;5.50;99.90;;;;;;4845593;29;20124;-88
2021/03/22 10:00:12;;;;;;;13.53;2.73;;;5.50;99.90;;;;;;4861006;29;20117;-89
2021/03/22 10:03:10;;;;;;;11.48;3.03;;;5.40;99.90;;;;;;4845696;29;20802;-87
2021/03/22 10:05:51;;;;;;;14.18;2.60;;;5.50;99.90;;;;;;4836116;29;20073;-86
2021/03/22 10:08:36;;;;;;;9.88;2.38;;;5.40;99.90;;;;;;4845313;29;20034;-87
2021/03/22 10:11:18;;;;;;;17.17;2.80;;;5.50;99.90;;;;;;4860982;29;20029;-87
2021/03/22 10:13:46;;;;;;;11.13;3.35;;;5.60;99.90;;;;;;4845151;29;20138;-87
2021/03/22 10:16:22;;;;;;;12.50;2.95;;;5.50;99.90;;;;;;4899516;29;20565;-87
2021/03/22 10:19:22;;;;;;;6.30;2.58;;;5.60;99.90;;;;;;4902271;29;20028;-88
2021/03/22 10:22:27;;;;;;;18.98;2.88;;;5.70;99.90;;;;;;4851390;29;20036;-87
2021/03/22 10:25:41;;;;;;;11.38;2.33;;;5.90;99.90;;;;;;4902773;29;20032;-87
2021/03/22 10:28:19;;;;;;;13.05;2.15;;;6.00;99.90;;;;;;4888067;29;20063;-87
2021/03/22 10:31:27;;;;;;;11.23;2.58;;;6.00;99.90;;;;;;4902886;29;20051;-87
2021/03/22 10:34:05;;;;;;;6.28;2.00;;;6.20;99.90;;;;;;4808633;29;20125;-87
2021/03/22 10:36:54;;;;;;;10.50;2.83;;;6.30;99.90;;;;;;4895029;29;20046;-86
2021/03/22 10:39:35;;;;;;;13.32;3.03;;;6.10;99.90;;;;;;4902111;29;20035;-86
2021/03/22 10:42:02;;;;;;;14.45;3.20;;;5.80;99.90;;;;;;4901910;29;20122;-89
2021/03/22 10:44:40;;;;;;;10.60;2.80;;;5.80;99.90;;;;;;4901653;29;20167;-88
2021/03/22 10:47:14;;;;;;;11.18;2.33;;;5.80;99.90;;;;;;4901650;29;20028;-87
2021/03/22 10:49:43;;;;;;;12.50;2.58;;;5.60;99.90;;;;;;4901461;29;20035;-87
2021/03/22 10:52:38;;;;;;;10.52;2.67;;;5.70;99.90;;;;;;4902329;29;20024;-87
2021/03/22 10:55:04;;;;;;;9.00;2.53;;;5.60;99.90;;;;;;4902352;29;20461;-87
2021/03/22 10:57:35;;;;;;;9.65;3.25;;;5.70;99.90;;;;;;4901967;29;20464;-87
2021/03/22 11:00:36;;;;;;;10.32;2.00;;;5.70;99.90;;;;;;4901245;29;20035;-87
2021/03/22 11:03:05;;;;;;;8.95;2.08;;;5.60;99.90;;;;;;4896740;29;20484;-87
2021/03/22 11:05:44;;;;;;;11.55;2.45;;;5.60;99.90;;;;;;4902019;29;20451;-89
2021/03/22 11:08:35;;;;;;;7.82;2.38;;;5.60;99.90;;;;;;4901080;29;20042;-87
2021/03/22 11:11:06;;;;;;;11.77;2.90;;;5.50;99.90;;;;;;4917944;29;20380;-87
2021/03/22 11:13:35;;;;;;;13.43;2.58;;;5.40;99.90;;;;;;4900763;29;20107;-87
2021/03/22 11:16:03;;;;;;;15.00;2.90;;;5.50;99.90;;;;;;4917685;29;20031;-87
2021/03/22 11:18:30;;;;;;;12.10;2.78;;;5.40;99.90;;;;;;4900845;29;20032;-87
2021/03/22 11:20:58;;;;;;;10.55;2.88;;;5.50;99.90;;;;;;4901515;29;20028;-87
2021/03/22 11:23:30;;;;;;;14.85;3.17;;;5.70;99.90;;;;;;4900981;29;20032;-92
2021/03/22 11:26:21;;;;;;;8.48;2.10;;;5.90;99.90;;;;;;4918326;29;20528;-88
2021/03/22 11:28:48;;;;;;;9.00;2.42;;;6.20;99.90;;;;;;4901645;29;20052;-88
2021/03/22 11:31:24;;;;;;;9.82;2.70;;;6.10;99.90;;;;;;4901056;29;20028;-88
2021/03/22 11:34:01;;;;;;;11.40;2.50;;;6.10;99.90;;;;;;4901549;29;20029;-90
2021/03/22 11:36:39;;;;;;;8.55;2.38;;;6.10;99.90;;;;;;4901269;29;20126;-89
2021/03/22 11:39:18;;;;;;;10.55;2.45;;;6.00;99.90;;;;;;4918627;29;20080;-90
2021/03/22 11:42:00;;;;;;;13.23;2.40;;;5.80;99.90;;;;;;4901527;29;20028;-90
2021/03/22 11:44:34;;;;;;;11.35;2.53;;;5.70;99.90;;;;;;4901843;29;20036;-90
2021/03/22 11:47:20;;;;;;;;;;;5.70;99.90;;;;;;4919327;29;20099;-90
2021/03/22 11:49:49;;;;;;;10.02;2.60;;;5.70;99.90;;;;;;4886128;29;19907;-90
2021/03/22 11:52:21;;;;;;;6.65;2.13;;;5.70;99.90;;;;;;4901746;29;20020;-90
2021/03/22 11:54:57;;;;;;;6.43;2.20;;;5.60;99.90;;;;;;4902366;29;20037;-90
2021/03/22 11:57:35;;;;;;;10.27;3.20;;;5.70;99.90;;;;;;4922214;29;20515;-90
2021/03/22 12:00:06;;;;;;;10.63;2.67;;;5.60;99.90;;;;;;4905220;29;20028;-90
2021/03/22 12:03:02;;;;;;;9.00;2.55;;;5.50;99.90;;;;;;4905663;29;20039;-90
2021/03/22 12:05:48;;;;;;;9.10;2.20;;;5.60;99.90;;;;;;4906186;29;20043;-88
2021/03/22 12:08:44;;;;;;;11.95;3.17;;;5.60;99.90;;;;;;4905687;29;20088;-88
2021/03/22 12:11:15;;;;;;;8.25;2.38;;;5.60;99.90;;;;;;4906740;29;20035;-88
2021/03/22 12:13:46;;;;;;;10.20;2.58;;;5.60;99.90;;;;;;4906773;29;20121;-88
2021/03/22 12:16:19;;;;;;;7.57;2.25;;;5.60;99.90;;;;;;4905993;29;20046;-88
2021/03/22 12:18:45;;;;;;;7.43;2.17;;;5.60;99.90;;;;;;4906858;29;20424;-88
2021/03/22 12:21:14;;;;;;;8.02;2.33;;;5.40;99.90;;;;;;4906621;29;20032;-88
2021/03/22 12:24:00;;;;;;;6.93;2.40;;;5.50;99.90;;;;;;4906387;29;20043;-88
2021/03/22 12:26:30;;;;;;;10.77;2.70;;;5.50;99.90;;;;;;4906628;29;20040;-88
2021/03/22 12:28:57;;;;;;;15.77;3.35;;;5.40;99.90;;;;;;4906159;29;20051;-89
2021/03/22 12:31:26;;;;;;;7.35;2.58;;;5.30;99.90;;;;;;4906004;29;20024;-91
2021/03/22 12:33:55;;;;;;;11.48;2.90;;;5.30;99.90;;;;;;4905406;29;20086;-88
2021/03/22 12:36:21;;;;;;;13.77;3.92;;;5.30;99.90;;;;;;4905657;29;20492;-88
2021/03/22 12:38:46;;;;;;;15.35;3.63;;;5.30;99.90;;;;;;4905643;29;20028;-88
2021/03/22 12:41:34;;;;;;;14.05;3.50;;;5.20;99.90;;;;;;4904883;29;20064;-89
2021/03/22 12:44:02;;;;;;;11.10;3.70;;;5.20;99.90;;;;;;4904828;29;20032;-90
2021/03/22 12:46:28;;;;;;;11.18;3.30;;;5.30;99.90;;;;;;4902960;29;20047;-88
2021/03/22 12:48:56;;;;;;;12.48;3.25;;;5.40;99.90;;;;;;4903554;29;20024;-88
2021/03/22 12:51:22;;;;;;;7.75;2.97;;;5.40;99.90;;;;;;4903867;29;20029;-88
2021/03/22 12:53:48;;;;;;;14.00;4.28;;;5.50;99.90;;;;;;4903541;29;20084;-87
2021/03/22 12:56:27;;;;;;;9.23;3.08;;;5.50;99.90;;;;;;4903361;29;20388;-89
2021/03/22 12:59:13;;;;;;;9.02;3.05;;;5.50;99.90;;;;;;4903212;29;20032;-89
2021/03/22 13:01:41;;;;;;;8.18;3.30;;;5.50;99.90;;;;;;4903458;29;20032;-90
2021/03/22 13:04:10;;;;;;;9.50;3.03;;;5.50;99.90;;;;;;4903985;29;20055;-90
2021/03/22 13:06:36;;;;;;;9.70;3.53;;;5.40;99.90;;;;;;4902959;29;20480;-91
2021/03/22 13:09:01;;;;;;;11.48;3.30;;;5.40;99.90;;;;;;4902401;29;20064;-90
2021/03/22 13:11:27;;;;;;;14.90;3.20;;;5.30;99.90;;;;;;4903097;29;20055;-90
2021/03/22 13:13:53;;;;;;;15.73;3.42;;;5.30;99.90;;;;;;4919872;29;20032;-89
2021/03/22 13:16:21;;;;;;;9.30;3.03;;;5.30;99.90;;;;;;4903453;29;20039;-90
2021/03/22 13:18:55;;;;;;;16.33;3.97;;;5.30;99.90;;;;;;4902842;29;20548;-90
2021/03/22 13:29:12;;;;;;;10.13;3.13;;;5.50;99.90;;;;;;5851010;23;20047;-78
2021/03/22 13:31:38;;;;;;;14.48;3.50;;;5.60;99.90;;;;;;4940306;29;20046;-76
2021/03/22 13:34:07;;;;;;;14.25;3.75;;;5.70;99.90;;;;;;4956723;29;20035;-80
2021/03/22 13:36:34;;;;;;;11.98;3.85;;;5.80;99.90;;;;;;4939804;29;20478;-79
2021/03/22 13:38:59;;;;;;;13.50;3.28;;;5.80;99.90;;;;;;4957199;29;20027;-78
2021/03/22 13:41:44;;;;;;;8.77;3.08;;;5.70;99.90;;;;;;4939730;29;20035;-77
2021/03/22 13:44:12;;;;;;;12.70;3.85;;;5.70;99.90;;;;;;4924220;29;20038;-77
2021/03/22 13:46:45;;;;;;;14.90;3.80;;;5.60;99.90;;;;;;4908485;29;20035;-78
2021/03/22 13:49:11;;;;;;;13.52;3.72;;;5.60;99.90;;;;;;4957170;29;20019;-78